sensor_id;sensor_type;location;lat;lon;timestamp;P1;durP1;ratioP1;P2;durP2;ratioP2
13611;SDS011;6877;51.436;6.774;2023-06-24T00:01:18;11.77;;;8.05;;
13611;SDS011;6877;51.436;6.774;2023-06-24T00:03:44;11.52;;;7.20;;
13611;SDS011;6877;51.436;6.774;2023-06-24T00:06:17;12.07;;;7.13;;
13611;SDS011;6877;51.436;6.774;2023-06-24T00:08:44;10.32;;;6.60;;
13611;SDS011;6877;51.436;6.774;2023-06-24T00:11:12;9.43;;;6.93;;
13611;SDS011;6877;51.436;6.774;2023-06-24T00:13:42;15.43;;;8.43;;
13611;SDS011;6877;51.436;6.774;2023-06-24T00:16:09;9.38;;;6.40;;
13611;SDS011;6877;51.436;6.774;2023-06-24T00:18:37;19.33;;;9.07;;
13611;SDS011;6877;51.436;6.774;2023-06-24T00:21:07;12.88;;;7.43;;
13611;SDS011;6877;51.436;6.774;2023-06-24T00:23:34;10.02;;;7.35;;
13611;SDS011;6877;51.436;6.774;2023-06-24T00:26:00;13.18;;;8.05;;
13611;SDS011;6877;51.436;6.774;2023-06-24T00:28:28;13.68;;;7.88;;
13611;SDS011;6877;51.436;6.774;2023-06-24T00:30:54;14.20;;;8.23;;
13611;SDS011;6877;51.436;6.774;2023-06-24T00:33:20;12.57;;;7.22;;
13611;SDS011;6877;51.436;6.774;2023-06-24T00:35:47;10.43;;;7.68;;
13611;SDS011;6877;51.436;6.774;2023-06-24T00:38:19;8.63;;;6.65;;
13611;SDS011;6877;51.436;6.774;2023-06-24T00:40:45;15.63;;;8.13;;
13611;SDS011;6877;51.436;6.774;2023-06-24T00:43:12;10.55;;;7.35;;
13611;SDS011;6877;51.436;6.774;2023-06-24T00:45:39;15.15;;;7.18;;
13611;SDS011;6877;51.436;6.774;2023-06-24T00:48:07;9.48;;;6.97;;
13611;SDS011;6877;51.436;6.774;2023-06-24T00:50:38;10.52;;;7.35;;
13611;SDS011;6877;51.436;6.774;2023-06-24T00:53:08;11.48;;;7.10;;
13611;SDS011;6877;51.436;6.774;2023-06-24T00:55:39;10.35;;;6.35;;
13611;SDS011;6877;51.436;6.774;2023-06-24T00:58:06;9.13;;;6.93;;
13611;SDS011;6877;51.436;6.774;2023-06-24T01:00:33;9.98;;;6.63;;
13611;SDS011;6877;51.436;6.774;2023-06-24T01:03:00;10.10;;;7.15;;
13611;SDS011;6877;51.436;6.774;2023-06-24T01:05:28;10.20;;;7.05;;
13611;SDS011;6877;51.436;6.774;2023-06-24T01:07:54;14.30;;;7.18;;
13611;SDS011;6877;51.436;6.774;2023-06-24T01:10:27;8.38;;;6.07;;
13611;SDS011;6877;51.436;6.774;2023-06-24T01:12:53;7.82;;;6.07;;
13611;SDS011;6877;51.436;6.774;2023-06-24T01:15:20;11.45;;;7.10;;
13611;SDS011;6877;51.436;6.774;2023-06-24T01:34:06;13.35;;;8.95;;
13611;SDS011;6877;51.436;6.774;2023-06-24T01:36:52;10.20;;;6.72;;
13611;SDS011;6877;51.436;6.774;2023-06-24T01:39:46;14.65;;;9.18;;
13611;SDS011;6877;51.436;6.774;2023-06-24T01:42:21;10.73;;;7.45;;
13611;SDS011;6877;51.436;6.774;2023-06-24T01:44:48;13.73;;;7.97;;
13611;SDS011;6877;51.436;6.774;2023-06-24T01:47:19;13.88;;;8.45;;
13611;SDS011;6877;51.436;6.774;2023-06-24T01:49:49;9.68;;;6.90;;
13611;SDS011;6877;51.436;6.774;2023-06-24T01:52:22;11.60;;;6.95;;
13611;SDS011;6877;51.436;6.774;2023-06-24T01:54:50;12.90;;;6.38;;
13611;SDS011;6877;51.436;6.774;2023-06-24T01:57:18;10.38;;;7.15;;
13611;SDS011;6877;51.436;6.774;2023-06-24T01:59:47;11.77;;;6.93;;
13611;SDS011;6877;51.436;6.774;2023-06-24T02:02:17;10.75;;;7.03;;
13611;SDS011;6877;51.436;6.774;2023-06-24T02:04:46;13.02;;;6.93;;
13611;SDS011;6877;51.436;6.774;2023-06-24T02:07:20;10.65;;;7.70;;
13611;SDS011;6877;51.436;6.774;2023-06-24T02:09:48;10.40;;;6.85;;
13611;SDS011;6877;51.436;6.774;2023-06-24T02:12:23;11.68;;;7.03;;
13611;SDS011;6877;51.436;6.774;2023-06-24T02:14:56;11.88;;;6.82;;
13611;SDS011;6877;51.436;6.774;2023-06-24T02:17:30;11.02;;;7.45;;
13611;SDS011;6877;51.436;6.774;2023-06-24T02:19:56;10.80;;;6.70;;
13611;SDS011;6877;51.436;6.774;2023-06-24T02:22:24;12.18;;;7.57;;
13611;SDS011;6877;51.436;6.774;2023-06-24T02:24:51;8.98;;;6.85;;
13611;SDS011;6877;51.436;6.774;2023-06-24T02:27:19;12.15;;;7.43;;
13611;SDS011;6877;51.436;6.774;2023-06-24T02:29:47;11.68;;;7.25;;
13611;SDS011;6877;51.436;6.774;2023-06-24T02:32:14;11.43;;;7.47;;
13611;SDS011;6877;51.436;6.774;2023-06-24T02:34:40;12.05;;;8.60;;
13611;SDS011;6877;51.436;6.774;2023-06-24T02:37:07;11.02;;;7.78;;
13611;SDS011;6877;51.436;6.774;2023-06-24T02:39:33;10.52;;;6.78;;
13611;SDS011;6877;51.436;6.774;2023-06-24T02:42:00;11.02;;;7.45;;
13611;SDS011;6877;51.436;6.774;2023-06-24T02:44:27;10.40;;;7.43;;
13611;SDS011;6877;51.436;6.774;2023-06-24T02:46:53;11.48;;;6.82;;
13611;SDS011;6877;51.436;6.774;2023-06-24T02:49:21;12.25;;;7.65;;
13611;SDS011;6877;51.436;6.774;2023-06-24T02:51:49;11.15;;;7.75;;
13611;SDS011;6877;51.436;6.774;2023-06-24T02:54:15;9.30;;;6.70;;
13611;SDS011;6877;51.436;6.774;2023-06-24T02:56:42;12.73;;;7.30;;
13611;SDS011;6877;51.436;6.774;2023-06-24T02:59:15;16.13;;;7.57;;
13611;SDS011;6877;51.436;6.774;2023-06-24T03:01:47;14.20;;;7.30;;
13611;SDS011;6877;51.436;6.774;2023-06-24T03:04:14;11.75;;;7.38;;
13611;SDS011;6877;51.436;6.774;2023-06-24T03:06:40;12.32;;;7.55;;
13611;SDS011;6877;51.436;6.774;2023-06-24T03:09:07;11.10;;;7.55;;
13611;SDS011;6877;51.436;6.774;2023-06-24T03:11:40;13.70;;;8.35;;
13611;SDS011;6877;51.436;6.774;2023-06-24T03:14:12;10.23;;;7.20;;
13611;SDS011;6877;51.436;6.774;2023-06-24T03:16:44;11.80;;;7.68;;
13611;SDS011;6877;51.436;6.774;2023-06-24T03:19:10;13.38;;;7.63;;
13611;SDS011;6877;51.436;6.774;2023-06-24T03:21:37;12.98;;;7.72;;
13611;SDS011;6877;51.436;6.774;2023-06-24T03:24:08;13.25;;;7.15;;
13611;SDS011;6877;51.436;6.774;2023-06-24T03:26:35;15.23;;;8.38;;
13611;SDS011;6877;51.436;6.774;2023-06-24T03:29:03;14.43;;;8.23;;
13611;SDS011;6877;51.436;6.774;2023-06-24T03:31:30;16.77;;;7.70;;
13611;SDS011;6877;51.436;6.774;2023-06-24T03:33:56;18.80;;;7.60;;
13611;SDS011;6877;51.436;6.774;2023-06-24T03:36:28;15.68;;;8.35;;
13611;SDS011;6877;51.436;6.774;2023-06-24T03:38:59;14.60;;;7.63;;
13611;SDS011;6877;51.436;6.774;2023-06-24T03:41:31;13.90;;;7.63;;
13611;SDS011;6877;51.436;6.774;2023-06-24T03:43:57;14.18;;;8.80;;
13611;SDS011;6877;51.436;6.774;2023-06-24T03:46:24;15.25;;;8.70;;
13611;SDS011;6877;51.436;6.774;2023-06-24T03:48:51;18.20;;;8.85;;
13611;SDS011;6877;51.436;6.774;2023-06-24T03:51:18;16.17;;;8.48;;
13611;SDS011;6877;51.436;6.774;2023-06-24T03:53:44;16.00;;;9.38;;
13611;SDS011;6877;51.436;6.774;2023-06-24T03:56:15;13.25;;;7.55;;
13611;SDS011;6877;51.436;6.774;2023-06-24T03:58:42;12.25;;;8.20;;
13611;SDS011;6877;51.436;6.774;2023-06-24T04:01:09;15.63;;;8.40;;
13611;SDS011;6877;51.436;6.774;2023-06-24T04:03:40;16.65;;;8.68;;
13611;SDS011;6877;51.436;6.774;2023-06-24T04:06:11;13.98;;;8.27;;
13611;SDS011;6877;51.436;6.774;2023-06-24T04:08:43;16.60;;;9.23;;
13611;SDS011;6877;51.436;6.774;2023-06-24T04:11:10;13.85;;;8.35;;
13611;SDS011;6877;51.436;6.774;2023-06-24T04:13:42;17.85;;;8.82;;
13611;SDS011;6877;51.436;6.774;2023-06-24T04:16:09;14.30;;;8.50;;
13611;SDS011;6877;51.436;6.774;2023-06-24T04:18:35;13.68;;;8.05;;
13611;SDS011;6877;51.436;6.774;2023-06-24T04:21:10;15.70;;;7.57;;
13611;SDS011;6877;51.436;6.774;2023-06-24T04:23:37;13.07;;;8.75;;
13611;SDS011;6877;51.436;6.774;2023-06-24T04:26:03;16.30;;;8.65;;
13611;SDS011;6877;51.436;6.774;2023-06-24T04:28:30;14.18;;;8.70;;
13611;SDS011;6877;51.436;6.774;2023-06-24T04:30:56;15.88;;;9.02;;
13611;SDS011;6877;51.436;6.774;2023-06-24T04:33:27;15.98;;;8.75;;
13611;SDS011;6877;51.436;6.774;2023-06-24T04:35:59;16.80;;;10.13;;
13611;SDS011;6877;51.436;6.774;2023-06-24T04:38:26;17.60;;;9.48;;
13611;SDS011;6877;51.436;6.774;2023-06-24T04:40:52;15.00;;;8.70;;
13611;SDS011;6877;51.436;6.774;2023-06-24T04:43:19;15.63;;;9.05;;
13611;SDS011;6877;51.436;6.774;2023-06-24T04:45:45;18.35;;;10.27;;
13611;SDS011;6877;51.436;6.774;2023-06-24T04:48:11;19.17;;;11.10;;
13611;SDS011;6877;51.436;6.774;2023-06-24T04:50:38;20.48;;;11.45;;
13611;SDS011;6877;51.436;6.774;2023-06-24T04:53:04;16.55;;;11.43;;
13611;SDS011;6877;51.436;6.774;2023-06-24T04:55:31;16.35;;;10.10;;
13611;SDS011;6877;51.436;6.774;2023-06-24T04:57:57;21.48;;;11.13;;
13611;SDS011;6877;51.436;6.774;2023-06-24T05:00:28;16.88;;;10.57;;
13611;SDS011;6877;51.436;6.774;2023-06-24T05:03:00;20.05;;;11.45;;
13611;SDS011;6877;51.436;6.774;2023-06-24T05:05:26;16.23;;;10.77;;
13611;SDS011;6877;51.436;6.774;2023-06-24T05:07:53;17.73;;;11.68;;
13611;SDS011;6877;51.436;6.774;2023-06-24T05:10:24;20.08;;;11.90;;
13611;SDS011;6877;51.436;6.774;2023-06-24T05:12:51;16.58;;;11.85;;
13611;SDS011;6877;51.436;6.774;2023-06-24T05:15:22;19.60;;;12.10;;
13611;SDS011;6877;51.436;6.774;2023-06-24T05:17:48;20.08;;;11.90;;
13611;SDS011;6877;51.436;6.774;2023-06-24T05:20:15;21.15;;;12.73;;
13611;SDS011;6877;51.436;6.774;2023-06-24T05:22:43;16.13;;;11.73;;
13611;SDS011;6877;51.436;6.774;2023-06-24T05:25:10;18.50;;;12.07;;
13611;SDS011;6877;51.436;6.774;2023-06-24T05:27:41;16.52;;;11.50;;
13611;SDS011;6877;51.436;6.774;2023-06-24T05:30:10;18.02;;;10.75;;
13611;SDS011;6877;51.436;6.774;2023-06-24T05:32:37;15.52;;;11.10;;
13611;SDS011;6877;51.436;6.774;2023-06-24T05:35:03;17.35;;;11.85;;
13611;SDS011;6877;51.436;6.774;2023-06-24T05:37:35;19.60;;;11.40;;
13611;SDS011;6877;51.436;6.774;2023-06-24T05:40:07;18.83;;;12.10;;
13611;SDS011;6877;51.436;6.774;2023-06-24T05:42:35;19.40;;;11.52;;
13611;SDS011;6877;51.436;6.774;2023-06-24T05:45:02;18.45;;;12.35;;
13611;SDS011;6877;51.436;6.774;2023-06-24T05:47:28;19.90;;;11.82;;
13611;SDS011;6877;51.436;6.774;2023-06-24T05:49:55;21.15;;;10.85;;
13611;SDS011;6877;51.436;6.774;2023-06-24T05:52:21;18.55;;;11.60;;
13611;SDS011;6877;51.436;6.774;2023-06-24T05:54:48;16.27;;;10.82;;
13611;SDS011;6877;51.436;6.774;2023-06-24T05:57:14;15.00;;;11.00;;
13611;SDS011;6877;51.436;6.774;2023-06-24T05:59:46;18.85;;;11.43;;
13611;SDS011;6877;51.436;6.774;2023-06-24T06:02:12;19.52;;;12.80;;
13611;SDS011;6877;51.436;6.774;2023-06-24T06:04:44;22.50;;;12.80;;
13611;SDS011;6877;51.436;6.774;2023-06-24T06:07:10;17.08;;;11.93;;
13611;SDS011;6877;51.436;6.774;2023-06-24T06:09:37;18.90;;;13.27;;
13611;SDS011;6877;51.436;6.774;2023-06-24T06:12:03;25.58;;;14.23;;
13611;SDS011;6877;51.436;6.774;2023-06-24T06:14:35;21.95;;;13.98;;
13611;SDS011;6877;51.436;6.774;2023-06-24T06:17:02;23.92;;;13.77;;
13611;SDS011;6877;51.436;6.774;2023-06-24T06:19:28;18.63;;;13.05;;
13611;SDS011;6877;51.436;6.774;2023-06-24T06:21:55;27.63;;;15.15;;
13611;SDS011;6877;51.436;6.774;2023-06-24T06:24:21;21.00;;;14.30;;
13611;SDS011;6877;51.436;6.774;2023-06-24T06:26:47;22.60;;;14.30;;
13611;SDS011;6877;51.436;6.774;2023-06-24T06:29:19;22.42;;;15.07;;
13611;SDS011;6877;51.436;6.774;2023-06-24T06:31:45;22.40;;;13.63;;
13611;SDS011;6877;51.436;6.774;2023-06-24T06:34:12;21.75;;;13.93;;
13611;SDS011;6877;51.436;6.774;2023-06-24T06:36:38;20.52;;;13.93;;
13611;SDS011;6877;51.436;6.774;2023-06-24T06:39:05;25.30;;;14.75;;
13611;SDS011;6877;51.436;6.774;2023-06-24T06:41:31;18.00;;;13.48;;
13611;SDS011;6877;51.436;6.774;2023-06-24T06:43:58;22.38;;;13.32;;
13611;SDS011;6877;51.436;6.774;2023-06-24T06:46:30;23.70;;;14.48;;
13611;SDS011;6877;51.436;6.774;2023-06-24T06:48:56;28.23;;;15.82;;
13611;SDS011;6877;51.436;6.774;2023-06-24T06:51:28;23.63;;;14.43;;
13611;SDS011;6877;51.436;6.774;2023-06-24T06:53:59;23.75;;;15.25;;
13611;SDS011;6877;51.436;6.774;2023-06-24T06:56:30;24.40;;;15.80;;
13611;SDS011;6877;51.436;6.774;2023-06-24T06:58:57;26.77;;;16.77;;
13611;SDS011;6877;51.436;6.774;2023-06-24T07:01:23;25.60;;;15.70;;
13611;SDS011;6877;51.436;6.774;2023-06-24T07:03:50;24.25;;;15.90;;
13611;SDS011;6877;51.436;6.774;2023-06-24T07:06:17;26.25;;;16.65;;
13611;SDS011;6877;51.436;6.774;2023-06-24T07:08:45;29.42;;;18.95;;
13611;SDS011;6877;51.436;6.774;2023-06-24T07:11:17;29.48;;;17.40;;
13611;SDS011;6877;51.436;6.774;2023-06-24T07:13:48;24.35;;;16.00;;
13611;SDS011;6877;51.436;6.774;2023-06-24T07:16:18;26.13;;;17.27;;
13611;SDS011;6877;51.436;6.774;2023-06-24T07:18:44;26.27;;;15.73;;
13611;SDS011;6877;51.436;6.774;2023-06-24T07:21:11;24.98;;;15.13;;
13611;SDS011;6877;51.436;6.774;2023-06-24T07:23:42;20.52;;;13.93;;
13611;SDS011;6877;51.436;6.774;2023-06-24T07:26:14;22.40;;;16.27;;
13611;SDS011;6877;51.436;6.774;2023-06-24T07:28:40;26.17;;;16.00;;
13611;SDS011;6877;51.436;6.774;2023-06-24T07:31:07;20.35;;;13.05;;
13611;SDS011;6877;51.436;6.774;2023-06-24T07:33:33;22.48;;;13.63;;
13611;SDS011;6877;51.436;6.774;2023-06-24T07:36:00;23.00;;;15.20;;
13611;SDS011;6877;51.436;6.774;2023-06-24T07:38:32;23.67;;;16.85;;
13611;SDS011;6877;51.436;6.774;2023-06-24T07:41:03;26.15;;;16.63;;
13611;SDS011;6877;51.436;6.774;2023-06-24T07:43:30;24.08;;;16.42;;
13611;SDS011;6877;51.436;6.774;2023-06-24T07:46:01;28.92;;;16.48;;
13611;SDS011;6877;51.436;6.774;2023-06-24T07:48:28;27.80;;;16.90;;
13611;SDS011;6877;51.436;6.774;2023-06-24T07:50:55;24.15;;;15.40;;
13611;SDS011;6877;51.436;6.774;2023-06-24T07:53:21;24.15;;;15.00;;
13611;SDS011;6877;51.436;6.774;2023-06-24T07:55:52;24.58;;;13.95;;
13611;SDS011;6877;51.436;6.774;2023-06-24T07:58:19;21.10;;;13.35;;
13611;SDS011;6877;51.436;6.774;2023-06-24T08:00:50;23.85;;;13.35;;
13611;SDS011;6877;51.436;6.774;2023-06-24T08:03:17;13.57;;;9.65;;
13611;SDS011;6877;51.436;6.774;2023-06-24T08:05:48;16.95;;;10.32;;
13611;SDS011;6877;51.436;6.774;2023-06-24T08:08:21;17.42;;;9.63;;
13611;SDS011;6877;51.436;6.774;2023-06-24T08:10:52;18.00;;;10.63;;
13611;SDS011;6877;51.436;6.774;2023-06-24T08:13:18;10.60;;;7.70;;
13611;SDS011;6877;51.436;6.774;2023-06-24T08:15:50;10.98;;;6.53;;
13611;SDS011;6877;51.436;6.774;2023-06-24T08:18:16;8.80;;;5.40;;
13611;SDS011;6877;51.436;6.774;2023-06-24T08:20:48;8.25;;;5.05;;
13611;SDS011;6877;51.436;6.774;2023-06-24T08:23:14;7.85;;;5.47;;
13611;SDS011;6877;51.436;6.774;2023-06-24T08:25:46;8.40;;;6.32;;
13611;SDS011;6877;51.436;6.774;2023-06-24T08:28:17;7.38;;;4.72;;
13611;SDS011;6877;51.436;6.774;2023-06-24T08:30:43;7.30;;;5.32;;
13611;SDS011;6877;51.436;6.774;2023-06-24T08:33:15;9.23;;;4.75;;
13611;SDS011;6877;51.436;6.774;2023-06-24T08:35:41;7.68;;;4.40;;
13611;SDS011;6877;51.436;6.774;2023-06-24T08:38:13;4.25;;;3.72;;
13611;SDS011;6877;51.436;6.774;2023-06-24T08:40:44;6.35;;;3.97;;
13611;SDS011;6877;51.436;6.774;2023-06-24T08:43:12;13.25;;;6.80;;
13611;SDS011;6877;51.436;6.774;2023-06-24T08:45:39;5.30;;;4.47;;
13611;SDS011;6877;51.436;6.774;2023-06-24T08:48:10;5.28;;;3.67;;
13611;SDS011;6877;51.436;6.774;2023-06-24T08:50:43;6.18;;;4.55;;
13611;SDS011;6877;51.436;6.774;2023-06-24T08:53:18;5.25;;;3.60;;
13611;SDS011;6877;51.436;6.774;2023-06-24T08:55:47;12.63;;;5.93;;
13611;SDS011;6877;51.436;6.774;2023-06-24T08:58:24;5.93;;;4.68;;
13611;SDS011;6877;51.436;6.774;2023-06-24T09:00:56;4.72;;;3.78;;
13611;SDS011;6877;51.436;6.774;2023-06-24T09:03:23;5.22;;;3.70;;
13611;SDS011;6877;51.436;6.774;2023-06-24T09:05:50;4.75;;;2.80;;
13611;SDS011;6877;51.436;6.774;2023-06-24T09:08:16;6.00;;;3.35;;
13611;SDS011;6877;51.436;6.774;2023-06-24T09:10:52;5.45;;;3.00;;
13611;SDS011;6877;51.436;6.774;2023-06-24T09:13:21;8.18;;;3.85;;
13611;SDS011;6877;51.436;6.774;2023-06-24T09:15:59;9.07;;;4.25;;
13611;SDS011;6877;51.436;6.774;2023-06-24T09:18:31;5.53;;;3.05;;
13611;SDS011;6877;51.436;6.774;2023-06-24T09:21:02;7.82;;;3.63;;
13611;SDS011;6877;51.436;6.774;2023-06-24T09:23:29;9.65;;;3.35;;
13611;SDS011;6877;51.436;6.774;2023-06-24T09:25:58;6.57;;;2.80;;
13611;SDS011;6877;51.436;6.774;2023-06-24T09:28:27;4.18;;;3.17;;
13611;SDS011;6877;51.436;6.774;2023-06-24T09:31:09;3.88;;;2.72;;
13611;SDS011;6877;51.436;6.774;2023-06-24T09:33:41;6.05;;;2.95;;
13611;SDS011;6877;51.436;6.774;2023-06-24T09:36:13;4.70;;;3.03;;
13611;SDS011;6877;51.436;6.774;2023-06-24T09:38:45;3.33;;;2.97;;
13611;SDS011;6877;51.436;6.774;2023-06-24T09:41:12;3.85;;;2.45;;
13611;SDS011;6877;51.436;6.774;2023-06-24T09:43:45;3.90;;;2.50;;
13611;SDS011;6877;51.436;6.774;2023-06-24T09:46:16;4.90;;;3.42;;
13611;SDS011;6877;51.436;6.774;2023-06-24T09:48:44;4.53;;;2.47;;
13611;SDS011;6877;51.436;6.774;2023-06-24T09:51:10;4.38;;;2.30;;
13611;SDS011;6877;51.436;6.774;2023-06-24T09:53:43;6.63;;;2.83;;
13611;SDS011;6877;51.436;6.774;2023-06-24T09:56:10;7.85;;;3.45;;
13611;SDS011;6877;51.436;6.774;2023-06-24T09:58:40;8.50;;;4.18;;
13611;SDS011;6877;51.436;6.774;2023-06-24T10:01:10;4.63;;;3.83;;
13611;SDS011;6877;51.436;6.774;2023-06-24T10:03:36;6.45;;;4.35;;
13611;SDS011;6877;51.436;6.774;2023-06-24T10:06:05;3.47;;;3.13;;
13611;SDS011;6877;51.436;6.774;2023-06-24T10:08:37;10.02;;;4.25;;
13611;SDS011;6877;51.436;6.774;2023-06-24T10:11:09;5.57;;;4.32;;
13611;SDS011;6877;51.436;6.774;2023-06-24T10:13:35;5.28;;;3.53;;
13611;SDS011;6877;51.436;6.774;2023-06-24T10:16:02;3.95;;;2.85;;
13611;SDS011;6877;51.436;6.774;2023-06-24T10:18:34;3.78;;;3.15;;
13611;SDS011;6877;51.436;6.774;2023-06-24T10:21:05;3.63;;;2.95;;
13611;SDS011;6877;51.436;6.774;2023-06-24T10:23:35;4.25;;;3.00;;
13611;SDS011;6877;51.436;6.774;2023-06-24T10:26:27;4.93;;;2.97;;
13611;SDS011;6877;51.436;6.774;2023-06-24T10:37:39;2.88;;;2.58;;
13611;SDS011;6877;51.436;6.774;2023-06-24T10:42:29;4.45;;;3.28;;
13611;SDS011;6877;51.436;6.774;2023-06-24T10:47:52;5.68;;;3.15;;
13611;SDS011;6877;51.436;6.774;2023-06-24T10:50:19;3.78;;;2.40;;
13611;SDS011;6877;51.436;6.774;2023-06-24T10:52:47;3.63;;;2.72;;
13611;SDS011;6877;51.436;6.774;2023-06-24T10:55:17;3.90;;;3.05;;
13611;SDS011;6877;51.436;6.774;2023-06-24T10:57:44;3.42;;;2.60;;
13611;SDS011;6877;51.436;6.774;2023-06-24T11:00:12;3.38;;;2.70;;
13611;SDS011;6877;51.436;6.774;2023-06-24T11:02:39;5.70;;;2.70;;
13611;SDS011;6877;51.436;6.774;2023-06-24T11:05:06;5.15;;;3.22;;
13611;SDS011;6877;51.436;6.774;2023-06-24T11:07:38;7.20;;;3.40;;
13611;SDS011;6877;51.436;6.774;2023-06-24T11:10:10;5.78;;;3.90;;
13611;SDS011;6877;51.436;6.774;2023-06-24T11:12:39;7.10;;;3.40;;
13611;SDS011;6877;51.436;6.774;2023-06-24T11:15:06;4.90;;;3.40;;
13611;SDS011;6877;51.436;6.774;2023-06-24T11:17:42;5.72;;;3.38;;
13611;SDS011;6877;51.436;6.774;2023-06-24T11:20:12;8.63;;;2.92;;
13611;SDS011;6877;51.436;6.774;2023-06-24T11:22:40;3.55;;;2.95;;
13611;SDS011;6877;51.436;6.774;2023-06-24T11:25:17;4.80;;;3.03;;
13611;SDS011;6877;51.436;6.774;2023-06-24T11:27:56;4.78;;;3.50;;
13611;SDS011;6877;51.436;6.774;2023-06-24T11:30:23;4.82;;;3.05;;
13611;SDS011;6877;51.436;6.774;2023-06-24T11:32:50;4.75;;;3.42;;
13611;SDS011;6877;51.436;6.774;2023-06-24T11:35:21;4.88;;;3.30;;
13611;SDS011;6877;51.436;6.774;2023-06-24T11:37:48;8.15;;;3.65;;
13611;SDS011;6877;51.436;6.774;2023-06-24T11:40:16;4.47;;;3.38;;
13611;SDS011;6877;51.436;6.774;2023-06-24T11:42:50;4.15;;;3.15;;
13611;SDS011;6877;51.436;6.774;2023-06-24T11:45:19;6.43;;;3.33;;
13611;SDS011;6877;51.436;6.774;2023-06-24T11:47:47;4.38;;;3.67;;
13611;SDS011;6877;51.436;6.774;2023-06-24T11:50:14;5.55;;;3.80;;
13611;SDS011;6877;51.436;6.774;2023-06-24T11:52:41;8.55;;;3.50;;
13611;SDS011;6877;51.436;6.774;2023-06-24T11:55:17;5.95;;;3.63;;
13611;SDS011;6877;51.436;6.774;2023-06-24T11:57:50;6.13;;;4.20;;
13611;SDS011;6877;51.436;6.774;2023-06-24T12:00:25;7.78;;;4.07;;
13611;SDS011;6877;51.436;6.774;2023-06-24T12:02:57;8.00;;;3.65;;
13611;SDS011;6877;51.436;6.774;2023-06-24T12:05:33;5.13;;;3.67;;
13611;SDS011;6877;51.436;6.774;2023-06-24T12:08:01;4.80;;;3.70;;
13611;SDS011;6877;51.436;6.774;2023-06-24T12:10:36;5.43;;;3.70;;
13611;SDS011;6877;51.436;6.774;2023-06-24T12:13:05;7.93;;;3.45;;
13611;SDS011;6877;51.436;6.774;2023-06-24T12:15:35;7.93;;;3.55;;
13611;SDS011;6877;51.436;6.774;2023-06-24T12:18:02;4.25;;;3.17;;
13611;SDS011;6877;51.436;6.774;2023-06-24T12:20:34;9.73;;;3.63;;
13611;SDS011;6877;51.436;6.774;2023-06-24T12:23:02;4.10;;;2.97;;
13611;SDS011;6877;51.436;6.774;2023-06-24T12:25:32;5.80;;;3.40;;
13611;SDS011;6877;51.436;6.774;2023-06-24T12:27:58;4.95;;;2.92;;
13611;SDS011;6877;51.436;6.774;2023-06-24T12:30:28;4.20;;;3.20;;
13611;SDS011;6877;51.436;6.774;2023-06-24T12:33:00;4.15;;;2.55;;
13611;SDS011;6877;51.436;6.774;2023-06-24T12:35:27;6.22;;;3.80;;
13611;SDS011;6877;51.436;6.774;2023-06-24T12:37:53;8.50;;;4.18;;
13611;SDS011;6877;51.436;6.774;2023-06-24T12:40:25;4.25;;;3.33;;
13611;SDS011;6877;51.436;6.774;2023-06-24T12:42:51;4.57;;;2.88;;
13611;SDS011;6877;51.436;6.774;2023-06-24T12:45:23;4.32;;;2.83;;
13611;SDS011;6877;51.436;6.774;2023-06-24T12:47:54;4.50;;;3.00;;
13611;SDS011;6877;51.436;6.774;2023-06-24T12:50:21;5.53;;;3.25;;
13611;SDS011;6877;51.436;6.774;2023-06-24T12:52:47;6.13;;;3.15;;
13611;SDS011;6877;51.436;6.774;2023-06-24T12:55:14;5.05;;;2.97;;
13611;SDS011;6877;51.436;6.774;2023-06-24T12:57:40;5.72;;;2.92;;
13611;SDS011;6877;51.436;6.774;2023-06-24T13:00:12;6.93;;;4.50;;
13611;SDS011;6877;51.436;6.774;2023-06-24T13:02:39;15.10;;;9.30;;
13611;SDS011;6877;51.436;6.774;2023-06-24T13:05:05;7.10;;;5.07;;
13611;SDS011;6877;51.436;6.774;2023-06-24T13:07:37;4.15;;;2.97;;
13611;SDS011;6877;51.436;6.774;2023-06-24T13:10:08;7.47;;;3.60;;
13611;SDS011;6877;51.436;6.774;2023-06-24T13:12:36;4.40;;;2.80;;
13611;SDS011;6877;51.436;6.774;2023-06-24T13:15:08;4.80;;;2.80;;
13611;SDS011;6877;51.436;6.774;2023-06-24T13:17:41;6.75;;;2.80;;
13611;SDS011;6877;51.436;6.774;2023-06-24T13:20:07;3.90;;;2.70;;
13611;SDS011;6877;51.436;6.774;2023-06-24T13:22:34;4.68;;;2.83;;
13611;SDS011;6877;51.436;6.774;2023-06-24T13:25:05;4.63;;;2.55;;
13611;SDS011;6877;51.436;6.774;2023-06-24T13:27:32;4.05;;;2.70;;
13611;SDS011;6877;51.436;6.774;2023-06-24T13:30:00;4.20;;;2.30;;
13611;SDS011;6877;51.436;6.774;2023-06-24T13:32:27;3.70;;;2.17;;
13611;SDS011;6877;51.436;6.774;2023-06-24T13:34:53;3.13;;;2.10;;
13611;SDS011;6877;51.436;6.774;2023-06-24T13:37:20;3.20;;;2.40;;
13611;SDS011;6877;51.436;6.774;2023-06-24T13:39:47;7.22;;;2.50;;
13611;SDS011;6877;51.436;6.774;2023-06-24T13:42:18;6.32;;;2.38;;
13611;SDS011;6877;51.436;6.774;2023-06-24T13:44:44;13.23;;;2.75;;
13611;SDS011;6877;51.436;6.774;2023-06-24T13:47:11;6.85;;;2.92;;
13611;SDS011;6877;51.436;6.774;2023-06-24T13:49:39;3.40;;;2.30;;
13611;SDS011;6877;51.436;6.774;2023-06-24T13:52:10;10.20;;;2.80;;
13611;SDS011;6877;51.436;6.774;2023-06-24T13:54:36;7.40;;;2.47;;
13611;SDS011;6877;51.436;6.774;2023-06-24T13:57:03;6.05;;;2.42;;
13611;SDS011;6877;51.436;6.774;2023-06-24T13:59:34;4.43;;;2.58;;
13611;SDS011;6877;51.436;6.774;2023-06-24T14:02:06;4.10;;;2.85;;
13611;SDS011;6877;51.436;6.774;2023-06-24T14:04:39;7.93;;;2.85;;
13611;SDS011;6877;51.436;6.774;2023-06-24T14:07:06;6.47;;;2.75;;
13611;SDS011;6877;51.436;6.774;2023-06-24T14:09:33;3.42;;;2.55;;
13611;SDS011;6877;51.436;6.774;2023-06-24T14:12:00;5.50;;;3.20;;
13611;SDS011;6877;51.436;6.774;2023-06-24T14:14:27;2.72;;;2.28;;
13611;SDS011;6877;51.436;6.774;2023-06-24T14:16:53;4.68;;;2.42;;
13611;SDS011;6877;51.436;6.774;2023-06-24T14:19:20;7.15;;;3.03;;
13611;SDS011;6877;51.436;6.774;2023-06-24T14:21:52;4.75;;;3.20;;
13611;SDS011;6877;51.436;6.774;2023-06-24T14:24:18;5.03;;;3.33;;
13611;SDS011;6877;51.436;6.774;2023-06-24T14:26:45;4.63;;;2.70;;
13611;SDS011;6877;51.436;6.774;2023-06-24T14:29:15;3.45;;;2.40;;
13611;SDS011;6877;51.436;6.774;2023-06-24T14:31:43;3.53;;;2.55;;
13611;SDS011;6877;51.436;6.774;2023-06-24T14:34:10;2.97;;;2.35;;
13611;SDS011;6877;51.436;6.774;2023-06-24T14:36:37;3.50;;;2.50;;
13611;SDS011;6877;51.436;6.774;2023-06-24T14:44:36;3.97;;;2.58;;
13611;SDS011;6877;51.436;6.774;2023-06-24T14:47:02;3.63;;;2.65;;
13611;SDS011;6877;51.436;6.774;2023-06-24T14:49:29;2.88;;;2.10;;
13611;SDS011;6877;51.436;6.774;2023-06-24T14:51:55;6.53;;;2.47;;
13611;SDS011;6877;51.436;6.774;2023-06-24T14:54:27;3.88;;;2.60;;
13611;SDS011;6877;51.436;6.774;2023-06-24T14:56:58;3.67;;;2.10;;
13611;SDS011;6877;51.436;6.774;2023-06-24T14:59:25;3.47;;;2.45;;
13611;SDS011;6877;51.436;6.774;2023-06-24T15:01:51;4.35;;;2.85;;
13611;SDS011;6877;51.436;6.774;2023-06-24T15:04:18;4.70;;;2.63;;
13611;SDS011;6877;51.436;6.774;2023-06-24T15:06:44;5.50;;;2.70;;
13611;SDS011;6877;51.436;6.774;2023-06-24T15:09:11;3.38;;;2.10;;
13611;SDS011;6877;51.436;6.774;2023-06-24T15:11:43;3.50;;;2.47;;
13611;SDS011;6877;51.436;6.774;2023-06-24T15:14:09;2.95;;;2.33;;
13611;SDS011;6877;51.436;6.774;2023-06-24T15:16:36;4.13;;;2.58;;
13611;SDS011;6877;51.436;6.774;2023-06-24T15:19:02;6.28;;;2.60;;
13611;SDS011;6877;51.436;6.774;2023-06-24T15:21:33;2.90;;;2.17;;
13611;SDS011;6877;51.436;6.774;2023-06-24T15:24:00;6.50;;;2.80;;
13611;SDS011;6877;51.436;6.774;2023-06-24T15:26:31;3.50;;;2.60;;
13611;SDS011;6877;51.436;6.774;2023-06-24T15:29:03;5.68;;;2.38;;
13611;SDS011;6877;51.436;6.774;2023-06-24T15:31:29;5.55;;;3.10;;
13611;SDS011;6877;51.436;6.774;2023-06-24T15:34:01;5.07;;;2.78;;
13611;SDS011;6877;51.436;6.774;2023-06-24T15:36:32;4.05;;;2.85;;